Terminal Aerodrome Forecast
Issued by NWS Pocatello, ID

Home | Current Version | Previous Version | Text Only | Print | Product List | Glossary On
Versions: 1 2 3 4 5 6 7 8 9 10 11 12 13 14 15 16 17 18 19 20 21 22 23 24 25 26 27
000
FTUS45 KPIH 231948 AAB
TAFPIH
TAF AMD
KPIH 231948Z 2320/2418 23020G30KT 1SM -SN BLSN SCT008 BKN015 OVC025
     FM232300 23015G25KT P6SM VCSH SCT008 BKN015 OVC025
      TEMPO 2323/2401 4SM -SN BKN008 OVC015
     FM240100 21015G25KT 4SM -SN BR BKN008 OVC015
     FM240400 21015KT P6SM VCSH SCT008 OVC015
     FM241000 21015KT 4SM -SN BR OVC008=

USA.gov is the U.S. government's official web portal to all federal, state and local government web resources and services.